sensor_id;sensor_type;location;lat;lon;timestamp;P1;durP1;ratioP1;P2;durP2;ratioP2
38457;SDS011;24239;48.058;10.486;2022-11-20T19:52:11;8.73;;;4.93;;
38457;SDS011;24239;48.058;10.486;2022-11-20T19:54:37;8.15;;;5.78;;
38457;SDS011;24239;48.058;10.486;2022-11-20T19:57:03;7.95;;;6.03;;
38457;SDS011;24239;48.058;10.486;2022-11-20T19:59:29;7.05;;;5.43;;
38457;SDS011;24239;48.058;10.486;2022-11-20T20:01:55;5.20;;;4.60;;
38457;SDS011;24239;48.058;10.486;2022-11-20T20:04:20;5.75;;;4.30;;
38457;SDS011;24239;48.058;10.486;2022-11-20T20:06:47;4.90;;;4.38;;
38457;SDS011;24239;48.058;10.486;2022-11-20T20:09:17;6.80;;;4.63;;
38457;SDS011;24239;48.058;10.486;2022-11-20T20:11:43;6.53;;;5.10;;
38457;SDS011;24239;48.058;10.486;2022-11-20T20:14:11;7.35;;;5.47;;
38457;SDS011;24239;48.058;10.486;2022-11-20T20:16:39;5.82;;;4.63;;
38457;SDS011;24239;48.058;10.486;2022-11-20T20:19:05;7.50;;;4.10;;
38457;SDS011;24239;48.058;10.486;2022-11-20T20:21:32;5.70;;;4.30;;
38457;SDS011;24239;48.058;10.486;2022-11-20T20:24:05;5.78;;;3.67;;
38457;SDS011;24239;48.058;10.486;2022-11-20T20:26:31;5.72;;;3.88;;
38457;SDS011;24239;48.058;10.486;2022-11-20T20:28:58;3.95;;;3.55;;
38457;SDS011;24239;48.058;10.486;2022-11-20T20:31:26;4.90;;;3.45;;
38457;SDS011;24239;48.058;10.486;2022-11-20T20:33:54;4.10;;;3.35;;
38457;SDS011;24239;48.058;10.486;2022-11-20T20:36:21;4.40;;;3.50;;
38457;SDS011;24239;48.058;10.486;2022-11-20T20:38:55;3.83;;;3.42;;
38457;SDS011;24239;48.058;10.486;2022-11-20T20:41:27;3.70;;;3.30;;
38457;SDS011;24239;48.058;10.486;2022-11-20T20:44:03;3.33;;;3.03;;
38457;SDS011;24239;48.058;10.486;2022-11-20T20:46:50;4.22;;;3.38;;
38457;SDS011;24239;48.058;10.486;2022-11-20T20:49:17;3.83;;;3.25;;
38457;SDS011;24239;48.058;10.486;2022-11-20T20:51:42;4.55;;;3.38;;
38457;SDS011;24239;48.058;10.486;2022-11-20T20:54:14;4.47;;;3.60;;
38457;SDS011;24239;48.058;10.486;2022-11-20T20:56:39;3.80;;;3.42;;
38457;SDS011;24239;48.058;10.486;2022-11-20T20:59:08;3.40;;;3.10;;
38457;SDS011;24239;48.058;10.486;2022-11-20T21:01:33;5.90;;;3.78;;
38457;SDS011;24239;48.058;10.486;2022-11-20T21:03:59;4.85;;;3.55;;
38457;SDS011;24239;48.058;10.486;2022-11-20T21:06:25;5.68;;;3.75;;
38457;SDS011;24239;48.058;10.486;2022-11-20T21:08:54;5.13;;;3.85;;
38457;SDS011;24239;48.058;10.486;2022-11-20T21:11:22;4.22;;;3.88;;
38457;SDS011;24239;48.058;10.486;2022-11-20T21:13:51;4.93;;;4.07;;
38457;SDS011;24239;48.058;10.486;2022-11-20T21:16:18;6.22;;;4.30;;
38457;SDS011;24239;48.058;10.486;2022-11-20T21:18:46;4.72;;;3.97;;
38457;SDS011;24239;48.058;10.486;2022-11-20T21:21:16;3.65;;;3.35;;
38457;SDS011;24239;48.058;10.486;2022-11-20T21:24:06;3.72;;;3.13;;
38457;SDS011;24239;48.058;10.486;2022-11-20T21:26:32;3.30;;;3.00;;
38457;SDS011;24239;48.058;10.486;2022-11-20T21:28:57;3.47;;;3.17;;
38457;SDS011;24239;48.058;10.486;2022-11-20T21:31:23;3.28;;;2.85;;
38457;SDS011;24239;48.058;10.486;2022-11-20T21:33:51;3.13;;;2.83;;
38457;SDS011;24239;48.058;10.486;2022-11-20T21:36:21;3.58;;;3.00;;
38457;SDS011;24239;48.058;10.486;2022-11-20T21:38:49;4.00;;;3.28;;
38457;SDS011;24239;48.058;10.486;2022-11-20T21:41:16;3.78;;;3.47;;
38457;SDS011;24239;48.058;10.486;2022-11-20T21:43:45;4.10;;;3.70;;
38457;SDS011;24239;48.058;10.486;2022-11-20T21:46:11;4.10;;;3.70;;
38457;SDS011;24239;48.058;10.486;2022-11-20T21:48:39;3.75;;;3.45;;
38457;SDS011;24239;48.058;10.486;2022-11-20T21:51:07;3.60;;;3.30;;
38457;SDS011;24239;48.058;10.486;2022-11-20T21:53:35;4.35;;;3.38;;
38457;SDS011;24239;48.058;10.486;2022-11-20T21:56:01;3.97;;;3.65;;
38457;SDS011;24239;48.058;10.486;2022-11-20T21:58:28;4.32;;;3.92;;
38457;SDS011;24239;48.058;10.486;2022-11-20T22:00:55;4.88;;;3.55;;
38457;SDS011;24239;48.058;10.486;2022-11-20T22:03:21;3.97;;;3.53;;
38457;SDS011;24239;48.058;10.486;2022-11-20T22:05:56;4.88;;;3.33;;
38457;SDS011;24239;48.058;10.486;2022-11-20T22:08:23;3.60;;;3.30;;
38457;SDS011;24239;48.058;10.486;2022-11-20T22:10:57;3.80;;;3.35;;
38457;SDS011;24239;48.058;10.486;2022-11-20T22:13:27;3.10;;;2.80;;
38457;SDS011;24239;48.058;10.486;2022-11-20T22:16:12;3.10;;;2.80;;
38457;SDS011;24239;48.058;10.486;2022-11-20T22:18:42;3.53;;;2.60;;
38457;SDS011;24239;48.058;10.486;2022-11-20T22:21:09;3.05;;;2.33;;
38457;SDS011;24239;48.058;10.486;2022-11-20T22:23:35;2.55;;;2.35;;
38457;SDS011;24239;48.058;10.486;2022-11-20T22:26:02;2.92;;;2.45;;
38457;SDS011;24239;48.058;10.486;2022-11-20T22:28:32;2.25;;;2.15;;
38457;SDS011;24239;48.058;10.486;2022-11-20T22:30:59;2.47;;;2.28;;
38457;SDS011;24239;48.058;10.486;2022-11-20T22:33:27;2.40;;;2.20;;
38457;SDS011;24239;48.058;10.486;2022-11-20T22:36:00;2.42;;;2.22;;
38457;SDS011;24239;48.058;10.486;2022-11-20T22:38:31;2.50;;;2.30;;
38457;SDS011;24239;48.058;10.486;2022-11-20T22:41:04;2.60;;;2.40;;
38457;SDS011;24239;48.058;10.486;2022-11-20T22:43:30;2.60;;;2.40;;
38457;SDS011;24239;48.058;10.486;2022-11-20T22:46:04;2.35;;;2.13;;
38457;SDS011;24239;48.058;10.486;2022-11-20T22:48:37;3.15;;;2.08;;
38457;SDS011;24239;48.058;10.486;2022-11-20T22:51:08;2.53;;;2.33;;
38457;SDS011;24239;48.058;10.486;2022-11-20T22:53:37;2.40;;;2.20;;
38457;SDS011;24239;48.058;10.486;2022-11-20T22:56:03;2.50;;;2.30;;
38457;SDS011;24239;48.058;10.486;2022-11-20T22:58:33;2.60;;;2.40;;
38457;SDS011;24239;48.058;10.486;2022-11-20T23:01:10;2.60;;;2.40;;
38457;SDS011;24239;48.058;10.486;2022-11-20T23:03:56;2.50;;;2.33;;
38457;SDS011;24239;48.058;10.486;2022-11-20T23:06:24;2.92;;;2.72;;
38457;SDS011;24239;48.058;10.486;2022-11-20T23:08:50;3.38;;;2.35;;
38457;SDS011;24239;48.058;10.486;2022-11-20T23:11:18;2.30;;;2.17;;
38457;SDS011;24239;48.058;10.486;2022-11-20T23:13:55;2.65;;;2.45;;
38457;SDS011;24239;48.058;10.486;2022-11-20T23:16:26;3.25;;;2.40;;
38457;SDS011;24239;48.058;10.486;2022-11-20T23:18:57;2.78;;;2.58;;
38457;SDS011;24239;48.058;10.486;2022-11-20T23:21:25;3.05;;;2.30;;
38457;SDS011;24239;48.058;10.486;2022-11-20T23:23:54;2.80;;;2.10;;
38457;SDS011;24239;48.058;10.486;2022-11-20T23:26:23;2.42;;;2.33;;
38457;SDS011;24239;48.058;10.486;2022-11-20T23:28:52;2.58;;;2.38;;
38457;SDS011;24239;48.058;10.486;2022-11-20T23:31:19;2.38;;;2.17;;
38457;SDS011;24239;48.058;10.486;2022-11-20T23:33:45;2.95;;;2.45;;
38457;SDS011;24239;48.058;10.486;2022-11-20T23:36:11;2.70;;;2.50;;
38457;SDS011;24239;48.058;10.486;2022-11-20T23:38:37;2.50;;;2.30;;
38457;SDS011;24239;48.058;10.486;2022-11-20T23:41:04;2.50;;;2.28;;
38457;SDS011;24239;48.058;10.486;2022-11-20T23:43:30;2.75;;;2.50;;
38457;SDS011;24239;48.058;10.486;2022-11-20T23:45:59;2.63;;;2.22;;
38457;SDS011;24239;48.058;10.486;2022-11-20T23:48:27;2.65;;;2.30;;
38457;SDS011;24239;48.058;10.486;2022-11-20T23:50:55;2.92;;;2.35;;
38457;SDS011;24239;48.058;10.486;2022-11-20T23:53:25;2.10;;;2.00;;
38457;SDS011;24239;48.058;10.486;2022-11-20T23:55:52;2.70;;;2.50;;
38457;SDS011;24239;48.058;10.486;2022-11-20T23:58:20;2.78;;;2.50;;
